createdAt,value
2022-12-23T00:00:30.717Z,97417.98
2022-12-23T00:03:19.209Z,97411.26
2022-12-23T00:05:47.529Z,97414.73
2022-12-23T00:08:15.891Z,97413.17
2022-12-23T00:10:44.807Z,97417.16
2022-12-23T00:13:31.663Z,97414.05
2022-12-23T00:16:07.210Z,97414.77
2022-12-23T00:18:35.957Z,97415.29
2022-12-23T00:21:09.140Z,97414.43
2022-12-23T00:23:40.189Z,97421.86
2022-12-23T00:26:14.141Z,97422.56
2022-12-23T00:28:42.460Z,97418.39
2022-12-23T00:31:11.711Z,97420.44
2022-12-23T00:33:43.729Z,97420.94
2022-12-23T00:36:13.158Z,97423.86
2022-12-23T00:38:59.881Z,97418.33
2022-12-23T00:41:47.025Z,97414.00
2022-12-23T00:44:15.840Z,97418.30
2022-12-23T00:46:44.419Z,97420.02
2022-12-23T00:49:32.664Z,97415.87
2022-12-23T00:52:00.969Z,97410.19
2022-12-23T00:54:29.380Z,97410.19
2022-12-23T00:56:58.007Z,97408.98
2022-12-23T00:59:26.014Z,97409.83
2022-12-23T01:02:12.803Z,97406.02
2022-12-23T01:04:59.404Z,97404.98
2022-12-23T01:07:27.544Z,97400.69
2022-12-23T01:09:55.797Z,97400.52
2022-12-23T01:12:23.882Z,97400.70
2022-12-23T01:14:52.061Z,97398.13
2022-12-23T01:17:20.400Z,97396.06
2022-12-23T01:19:48.589Z,97392.63
2022-12-23T01:22:16.801Z,97390.21
2022-12-23T01:24:44.894Z,97389.89
2022-12-23T01:27:13.136Z,97392.30
2022-12-23T01:29:41.234Z,97394.36
2022-12-23T01:32:09.379Z,97391.59
2022-12-23T01:34:37.887Z,97386.73
2022-12-23T01:37:06.427Z,97387.39
2022-12-23T01:39:34.548Z,97388.75
2022-12-23T01:42:21.358Z,97388.03
2022-12-23T01:45:00.920Z,97385.05
2022-12-23T01:47:54.255Z,97378.30
2022-12-23T01:50:38.728Z,97377.58
2022-12-23T01:53:13.701Z,97380.15
2022-12-23T01:56:05.799Z,97376.50
2022-12-23T01:58:38.667Z,97372.00
2022-12-23T02:01:26.934Z,97370.09
2022-12-23T02:03:59.728Z,97372.66
2022-12-23T02:06:52.227Z,97379.57
2022-12-23T02:09:24.689Z,97378.52
2022-12-23T02:12:21.691Z,97372.84
2022-12-23T02:15:11.772Z,97369.23
2022-12-23T02:18:05.738Z,97371.16
2022-12-23T02:21:03.437Z,97369.11
2022-12-23T02:24:16.309Z,97367.73
2022-12-23T02:26:53.357Z,97367.88
2022-12-23T02:29:40.184Z,97368.85
2022-12-23T02:32:23.587Z,97365.38
2022-12-23T02:35:27.860Z,97355.87
2022-12-23T02:38:01.318Z,97352.39
2022-12-23T02:40:58.204Z,97349.44
2022-12-23T02:43:48.102Z,97350.09
2022-12-23T02:46:30.971Z,97353.81
2022-12-23T02:48:59.140Z,97358.08
2022-12-23T02:51:32.960Z,97359.23
2022-12-23T02:54:05.731Z,97355.24
2022-12-23T02:56:37.362Z,97355.89
2022-12-23T02:59:16.391Z,97357.76
2022-12-23T03:01:46.024Z,97356.69
2022-12-23T03:04:15.091Z,97363.55
2022-12-23T03:06:50.237Z,97368.15
2022-12-23T03:09:37.354Z,97371.40
2022-12-23T03:12:40.795Z,97368.63
2022-12-23T03:15:17.889Z,97368.10
2022-12-23T03:18:21.812Z,97366.55
2022-12-23T03:21:18.263Z,97364.49
2022-12-23T03:23:55.979Z,97361.58
2022-12-23T03:26:38.221Z,97358.63
2022-12-23T03:29:19.734Z,97353.79
2022-12-23T03:31:49.927Z,97352.39
2022-12-23T03:34:25.297Z,97351.67
2022-12-23T03:36:58.119Z,97355.45
2022-12-23T03:39:32.483Z,97358.35
2022-12-23T03:42:13.904Z,97354.00
2022-12-23T03:45:10.797Z,97356.16
2022-12-23T03:47:45.603Z,97354.33
2022-12-23T03:50:17.165Z,97360.77
2022-12-23T03:53:12.378Z,97365.15
2022-12-23T03:55:54.336Z,97369.92
2022-12-23T03:58:29.217Z,97367.65
2022-12-23T04:01:08.293Z,97365.06
2022-12-23T04:03:42.162Z,97362.30
2022-12-23T04:06:14.645Z,97356.98
2022-12-23T04:08:45.017Z,97354.41
2022-12-23T04:11:14.138Z,97354.77
2022-12-23T04:13:42.470Z,97357.89
2022-12-23T04:16:11.035Z,97360.52
2022-12-23T04:18:39.083Z,97364.55
2022-12-23T04:21:07.328Z,97367.56
2022-12-23T04:23:35.411Z,97363.67
2022-12-23T04:26:03.494Z,97365.14
2022-12-23T04:28:31.580Z,97369.19
2022-12-23T04:30:59.996Z,97370.13
2022-12-23T04:33:28.362Z,97369.19
2022-12-23T04:35:56.472Z,97372.52
2022-12-23T04:38:24.661Z,97371.02
2022-12-23T04:40:52.695Z,97371.56
2022-12-23T04:43:20.893Z,97375.37
2022-12-23T04:45:52.921Z,97370.57
2022-12-23T04:48:21.232Z,97366.77
2022-12-23T04:50:49.432Z,97369.90
2022-12-23T04:53:17.465Z,97374.35
2022-12-23T04:55:51.291Z,97380.90
2022-12-23T04:58:22.365Z,97381.40
2022-12-23T05:00:50.794Z,97376.91
2022-12-23T05:03:19.089Z,97372.77
2022-12-23T05:05:47.359Z,97369.14
2022-12-23T05:08:15.386Z,97366.52
2022-12-23T05:10:45.733Z,97365.48
2022-12-23T05:13:13.838Z,97369.44
2022-12-23T05:15:45.436Z,97371.19
2022-12-23T05:18:13.394Z,97371.21
2022-12-23T05:20:41.504Z,97375.02
2022-12-23T05:23:09.884Z,97374.87
2022-12-23T05:25:39.537Z,97373.88
2022-12-23T05:28:08.261Z,97376.67
2022-12-23T05:30:36.758Z,97376.88
2022-12-23T05:33:04.890Z,97368.30
2022-12-23T05:35:33.117Z,97366.45
2022-12-23T05:38:03.367Z,97372.33
2022-12-23T05:40:33.187Z,97372.84
2022-12-23T05:43:02.504Z,97373.84
2022-12-23T05:45:30.853Z,97375.58
2022-12-23T05:47:59.207Z,97375.75
2022-12-23T05:50:27.450Z,97375.38
2022-12-23T05:52:58.400Z,97376.19
2022-12-23T05:55:27.356Z,97375.27
2022-12-23T05:57:55.564Z,97379.56
2022-12-23T06:00:24.152Z,97385.09
2022-12-23T06:02:54.168Z,97386.80
2022-12-23T06:05:22.915Z,97386.63
2022-12-23T06:07:51.240Z,97389.04
2022-12-23T06:10:19.840Z,97392.64
2022-12-23T06:12:47.982Z,97390.08
2022-12-23T06:15:16.503Z,97385.09
2022-12-23T06:17:44.653Z,97387.88
2022-12-23T06:20:20.018Z,97389.44
2022-12-23T06:22:49.040Z,97391.88
2022-12-23T06:25:17.151Z,97386.70
2022-12-23T06:27:45.360Z,97386.86
2022-12-23T06:30:14.508Z,97383.42
2022-12-23T06:32:42.849Z,97382.05
2022-12-23T06:35:10.965Z,97376.04
2022-12-23T06:37:39.009Z,97369.28
2022-12-23T06:40:07.557Z,97369.41
2022-12-23T06:42:35.808Z,97372.13
2022-12-23T06:45:04.342Z,97379.69
2022-12-23T06:47:32.530Z,97385.36
2022-12-23T06:50:00.599Z,97384.31
2022-12-23T06:52:28.946Z,97389.31
2022-12-23T06:54:57.327Z,97390.65
2022-12-23T06:57:28.916Z,97391.09
2022-12-23T06:59:57.928Z,97389.31
2022-12-23T07:02:26.271Z,97392.73
2022-12-23T07:04:54.532Z,97396.81
2022-12-23T07:07:22.681Z,97393.16
2022-12-23T07:09:50.701Z,97393.69
2022-12-23T07:12:19.617Z,97393.02
2022-12-23T07:14:47.777Z,97398.16
2022-12-23T07:17:15.995Z,97394.90
2022-12-23T07:19:44.304Z,97379.45
2022-12-23T07:22:12.480Z,97365.02
2022-12-23T07:24:40.714Z,97367.14
2022-12-23T07:27:09.700Z,97375.64
2022-12-23T07:29:37.649Z,97388.80
2022-12-23T07:32:05.921Z,97393.83
2022-12-23T07:34:34.374Z,97392.63
2022-12-23T07:37:02.673Z,97396.42
2022-12-23T07:39:30.931Z,97394.98
2022-12-23T07:42:25.078Z,97388.23
2022-12-23T07:44:47.719Z,97393.55
2022-12-23T07:47:16.024Z,97393.89
2022-12-23T07:49:44.405Z,97396.84
2022-12-23T07:52:12.909Z,97400.11
2022-12-23T07:54:43.543Z,97398.41
2022-12-23T07:57:15.551Z,97396.39
2022-12-23T07:59:43.919Z,97398.13
2022-12-23T08:02:12.519Z,97398.48
2022-12-23T08:04:46.113Z,97404.23
2022-12-23T08:07:15.246Z,97404.34
2022-12-23T08:09:43.718Z,97401.84
2022-12-23T08:12:12.306Z,97404.44
2022-12-23T08:14:40.546Z,97407.23
2022-12-23T08:17:09.706Z,97408.66
2022-12-23T08:19:38.396Z,97412.17
2022-12-23T08:22:07.210Z,97412.77
2022-12-23T08:24:35.409Z,97413.86
2022-12-23T08:27:03.815Z,97416.48
2022-12-23T08:29:36.267Z,97415.61
2022-12-23T08:32:05.718Z,97418.35
2022-12-23T08:34:34.384Z,97411.98
2022-12-23T08:37:03.585Z,97414.10
2022-12-23T08:39:32.147Z,97409.48
2022-12-23T08:42:00.752Z,97406.57
2022-12-23T08:44:29.926Z,97405.41
2022-12-23T08:46:58.485Z,97400.08
2022-12-23T08:49:27.079Z,97398.76
2022-12-23T08:51:55.373Z,97395.52
2022-12-23T08:54:25.326Z,97388.66
2022-12-23T08:56:53.776Z,97381.95
2022-12-23T08:59:21.840Z,97375.40
2022-12-23T09:01:50.429Z,97372.29
2022-12-23T09:04:18.914Z,97372.62
2022-12-23T09:06:47.051Z,97376.58
2022-12-23T09:09:16.409Z,97378.31
2022-12-23T09:11:44.865Z,97385.58
2022-12-23T09:14:13.048Z,97385.23
2022-12-23T09:16:41.364Z,97381.94
2022-12-23T09:19:09.943Z,97375.16
2022-12-23T09:21:38.172Z,97375.31
2022-12-23T09:24:06.678Z,97369.91
2022-12-23T09:26:34.897Z,97361.03
2022-12-23T09:29:03.046Z,97362.07
2022-12-23T09:31:36.600Z,97362.45
2022-12-23T09:34:06.183Z,97353.95
2022-12-23T09:36:35.006Z,97356.18
2022-12-23T09:39:04.128Z,97360.70
2022-12-23T09:41:42.981Z,97361.41
2022-12-23T09:44:45.872Z,97355.01
2022-12-23T09:47:22.239Z,97348.08
2022-12-23T09:49:56.913Z,97343.78
2022-12-23T09:53:17.775Z,97346.04
2022-12-23T09:55:55.284Z,97345.73
2022-12-23T09:58:36.663Z,97344.33
2022-12-23T10:01:20.065Z,97346.20
2022-12-23T10:03:52.766Z,97342.39
2022-12-23T10:06:27.924Z,97340.64
2022-12-23T10:09:02.791Z,97336.44
2022-12-23T10:11:47.251Z,97329.61
2022-12-23T10:14:21.125Z,97325.77
2022-12-23T10:16:58.069Z,97330.60
2022-12-23T10:19:28.984Z,97330.94
2022-12-23T10:22:10.630Z,97326.64
2022-12-23T10:24:42.031Z,97326.65
2022-12-23T10:27:22.346Z,97324.59
2022-12-23T10:29:50.570Z,97325.95
2022-12-23T10:32:31.467Z,97329.24
2022-12-23T10:35:35.761Z,97328.20
2022-12-23T10:38:19.972Z,97326.66
2022-12-23T10:41:32.982Z,97324.61
2022-12-23T10:44:22.975Z,97325.83
2022-12-23T10:47:16.708Z,97323.05
2022-12-23T10:50:14.487Z,97321.31
2022-12-23T10:52:45.607Z,97317.99
2022-12-23T10:55:36.298Z,97314.84
2022-12-23T10:58:15.719Z,97315.52
2022-12-23T11:00:53.796Z,97321.37
2022-12-23T11:03:26.579Z,97317.55
2022-12-23T11:05:57.606Z,97313.05
2022-12-23T11:08:29.578Z,97314.41
2022-12-23T11:11:01.169Z,97316.85
2022-12-23T11:13:32.524Z,97314.30
2022-12-23T11:16:21.856Z,97309.09
2022-12-23T11:18:55.016Z,97306.98
2022-12-23T11:21:23.721Z,97304.87
2022-12-23T11:24:18.301Z,97302.48
2022-12-23T11:26:51.778Z,97301.95
2022-12-23T11:29:36.938Z,97304.50
2022-12-23T11:32:17.806Z,97303.11
2022-12-23T11:34:48.393Z,97299.81
2022-12-23T11:37:40.934Z,97300.16
2022-12-23T11:40:25.437Z,97296.36
2022-12-23T11:43:03.508Z,97297.19
2022-12-23T11:45:38.003Z,97293.85
2022-12-23T11:48:26.231Z,97282.87
2022-12-23T11:51:04.013Z,97283.89
2022-12-23T11:53:32.833Z,97277.48
2022-12-23T11:56:04.794Z,97278.50
2022-12-23T11:58:59.837Z,97280.45
2022-12-23T12:01:29.024Z,97282.16
2022-12-23T12:04:03.984Z,97282.70
2022-12-23T12:06:34.042Z,97285.69
2022-12-23T12:09:05.709Z,97296.98
2022-12-23T12:11:48.309Z,97301.52
2022-12-23T12:14:23.310Z,97291.27
2022-12-23T12:17:00.881Z,97288.80
2022-12-23T12:19:36.117Z,97298.48
2022-12-23T12:22:15.003Z,97304.02
2022-12-23T12:24:50.805Z,97298.27
2022-12-23T12:27:22.900Z,97300.85
2022-12-23T12:29:56.261Z,97305.67
2022-12-23T12:32:41.245Z,97307.57
2022-12-23T12:35:22.304Z,97305.51
2022-12-23T12:38:01.910Z,97312.08
2022-12-23T12:40:41.231Z,97317.30
2022-12-23T12:43:32.825Z,97314.36
2022-12-23T12:46:33.279Z,97311.73
2022-12-23T12:49:05.018Z,97316.38
2022-12-23T12:51:46.942Z,97312.04
2022-12-23T12:54:30.542Z,97314.31
2022-12-23T12:56:59.948Z,97310.69
2022-12-23T12:59:39.274Z,97308.45
2022-12-23T13:02:42.600Z,97311.77
2022-12-23T13:05:30.270Z,97314.61
2022-12-23T13:08:21.967Z,97309.41
2022-12-23T13:10:56.660Z,97298.14
2022-12-23T13:14:02.274Z,97296.57
2022-12-23T13:16:44.152Z,97298.46
2022-12-23T13:19:44.655Z,97296.40
2022-12-23T13:22:17.748Z,97301.13
2022-12-23T13:25:22.596Z,97308.26
2022-12-23T13:28:12.085Z,97311.40
2022-12-23T13:30:48.585Z,97312.94
2022-12-23T13:33:21.253Z,97311.55
2022-12-23T13:36:14.628Z,97304.96
2022-12-23T13:39:18.802Z,97311.56
2022-12-23T13:41:53.701Z,97312.13
2022-12-23T13:44:23.133Z,97316.31
2022-12-23T13:47:06.755Z,97316.35
2022-12-23T13:49:53.352Z,97314.27
2022-12-23T13:52:56.932Z,97314.29
2022-12-23T13:55:36.616Z,97317.77
2022-12-23T13:58:13.565Z,97321.41
2022-12-23T14:00:42.433Z,97321.06
2022-12-23T14:03:12.800Z,97319.48
2022-12-23T14:05:45.336Z,97315.15
2022-12-23T14:08:19.586Z,97318.96
2022-12-23T14:11:00.380Z,97322.96
2022-12-23T14:13:42.327Z,97326.27
2022-12-23T14:16:37.813Z,97326.11
2022-12-23T14:19:51.940Z,97326.31
2022-12-23T14:22:53.886Z,97325.80
2022-12-23T14:25:47.483Z,97320.09
2022-12-23T14:28:44.059Z,97316.81
2022-12-23T14:31:34.671Z,97318.39
2022-12-23T14:34:06.554Z,97316.84
2022-12-23T14:36:35.271Z,97317.20
2022-12-23T14:39:12.718Z,97317.05
2022-12-23T14:41:53.662Z,97312.92
2022-12-23T14:44:37.324Z,97314.89
2022-12-23T14:47:25.880Z,97314.41
2022-12-23T14:49:54.585Z,97315.13
2022-12-23T14:52:38.068Z,97311.16
2022-12-23T14:55:31.693Z,97297.33
2022-12-23T14:58:15.323Z,97298.73
2022-12-23T15:00:50.879Z,97300.30
2022-12-23T15:03:20.772Z,97298.59
2022-12-23T15:05:51.216Z,97305.34
2022-12-23T15:08:31.236Z,97305.02
2022-12-23T15:10:59.867Z,97303.45
2022-12-23T15:13:30.363Z,97313.67
2022-12-23T15:16:01.686Z,97323.88
2022-12-23T15:18:30.346Z,97325.42
2022-12-23T15:21:04.075Z,97322.66
2022-12-23T15:23:33.379Z,97321.96
2022-12-23T15:26:02.653Z,97320.07
2022-12-23T15:28:39.511Z,97315.91
2022-12-23T15:31:25.657Z,97312.80
2022-12-23T15:34:04.125Z,97307.09
2022-12-23T15:36:37.772Z,97298.81
2022-12-23T15:39:18.914Z,97292.42
2022-12-23T15:41:48.690Z,97292.76
2022-12-23T15:44:23.338Z,97291.19
2022-12-23T15:46:52.292Z,97293.27
2022-12-23T15:49:21.962Z,97296.89
2022-12-23T15:52:07.843Z,97299.98
2022-12-23T15:54:45.170Z,97296.34
2022-12-23T15:57:19.842Z,97291.66
2022-12-23T15:59:48.928Z,97292.69
2022-12-23T16:05:30.575Z,97293.34
2022-12-23T16:08:30.470Z,97290.73
2022-12-23T16:11:16.157Z,97289.51
2022-12-23T16:13:59.193Z,97291.56
2022-12-23T16:16:34.195Z,97287.92
2022-12-23T16:19:02.694Z,97283.09
2022-12-23T16:21:34.732Z,97280.15
2022-12-23T16:24:08.495Z,97278.58
2022-12-23T16:26:42.751Z,97277.02
2022-12-23T16:29:13.070Z,97276.66
2022-12-23T16:31:47.864Z,97278.20
2022-12-23T16:34:19.997Z,97273.55
2022-12-23T16:36:48.164Z,97270.45
2022-12-23T16:39:22.627Z,97277.52
2022-12-23T16:41:51.222Z,97276.32
2022-12-23T16:44:19.240Z,97282.52
2022-12-23T16:46:49.697Z,97287.69
2022-12-23T16:49:20.735Z,97289.75
2022-12-23T16:51:49.416Z,97287.85
2022-12-23T16:54:20.258Z,97286.47
2022-12-23T16:56:51.600Z,97286.30
2022-12-23T16:59:22.903Z,97279.73
2022-12-23T17:01:53.674Z,97268.51
2022-12-23T17:04:24.070Z,97267.65
2022-12-23T17:06:52.329Z,97265.96
2022-12-23T17:09:21.163Z,97258.90
2022-12-23T17:11:53.184Z,97258.05
2022-12-23T17:14:24.865Z,97258.77
2022-12-23T17:16:53.738Z,97258.10
2022-12-23T17:19:28.677Z,97254.67
2022-12-23T17:22:02.201Z,97256.23
2022-12-23T17:24:30.573Z,97254.35
2022-12-23T17:26:59.075Z,97260.55
2022-12-23T17:29:28.407Z,97260.21
2022-12-23T17:31:56.642Z,97257.63
2022-12-23T17:34:25.003Z,97256.42
2022-12-23T17:36:53.589Z,97259.02
2022-12-23T17:39:22.852Z,97261.92
2022-12-23T17:41:51.908Z,97265.38
2022-12-23T17:44:20.187Z,97265.37
2022-12-23T17:46:48.615Z,97267.09
2022-12-23T17:49:17.403Z,97260.52
2022-12-23T17:51:45.950Z,97269.33
2022-12-23T17:54:25.125Z,97270.88
2022-12-23T17:56:53.888Z,97273.30
2022-12-23T17:59:22.064Z,97273.13
2022-12-23T18:01:50.512Z,97265.89
2022-12-23T18:04:18.880Z,97262.27
2022-12-23T18:06:47.166Z,97260.90
2022-12-23T18:09:15.298Z,97258.30
2022-12-23T18:11:45.931Z,97252.96
2022-12-23T18:14:24.005Z,97257.63
2022-12-23T18:16:52.512Z,97259.02
2022-12-23T18:19:21.896Z,97256.24
2022-12-23T18:21:51.690Z,97250.73
2022-12-23T18:24:19.840Z,97248.30
2022-12-23T18:26:48.171Z,97251.58
2022-12-23T18:29:16.439Z,97248.65
2022-12-23T18:31:51.428Z,97246.40
2022-12-23T18:34:21.136Z,97240.16
2022-12-23T18:36:52.076Z,97233.44
2022-12-23T18:39:21.313Z,97230.66
2022-12-23T18:41:49.555Z,97230.33
2022-12-23T18:44:21.828Z,97231.55
2022-12-23T18:46:50.790Z,97233.95
2022-12-23T18:49:19.600Z,97237.91
2022-12-23T18:51:48.035Z,97242.54
2022-12-23T18:54:16.993Z,97242.17
2022-12-23T18:56:45.646Z,97239.59
2022-12-23T18:59:24.316Z,97236.31
2022-12-23T19:01:58.325Z,97243.23
2022-12-23T19:04:27.934Z,97245.30
2022-12-23T19:06:57.736Z,97242.56
2022-12-23T19:09:26.508Z,97240.50
2022-12-23T19:11:54.901Z,97246.73
2022-12-23T19:14:23.395Z,97248.46
2022-12-23T19:16:52.700Z,97243.13
2022-12-23T19:19:22.183Z,97238.13
2022-12-23T19:21:50.427Z,97235.36
2022-12-23T19:24:18.534Z,97244.17
2022-12-23T19:26:47.071Z,97242.80
2022-12-23T19:29:15.437Z,97243.15
2022-12-23T19:31:43.625Z,97242.27
2022-12-23T19:34:15.355Z,97243.32
2022-12-23T19:36:44.705Z,97238.84
2022-12-23T19:39:16.989Z,97234.01
2022-12-23T19:41:45.778Z,97237.64
2022-12-23T19:44:14.886Z,97238.33
2022-12-23T19:46:43.449Z,97236.08
2022-12-23T19:49:19.177Z,97232.79
2022-12-23T19:51:49.518Z,97227.61
2022-12-23T19:54:19.308Z,97230.55
2022-12-23T19:56:51.406Z,97235.05
2022-12-23T19:59:20.165Z,97232.80
2022-12-23T20:01:49.060Z,97231.58
2022-12-23T20:04:17.721Z,97232.09
2022-12-23T20:06:46.270Z,97233.80
2022-12-23T20:09:14.368Z,97234.34
2022-12-23T20:11:45.653Z,97223.97
2022-12-23T20:14:15.952Z,97230.20
2022-12-23T20:16:44.563Z,97230.20
2022-12-23T20:19:12.819Z,97232.27
2022-12-23T20:21:41.007Z,97232.27
2022-12-23T20:24:09.739Z,97232.09
2022-12-23T20:26:39.365Z,97236.25
2022-12-23T20:29:08.651Z,97230.55
2022-12-23T20:31:38.677Z,97234.17
2022-12-23T20:34:10.790Z,97234.85
2022-12-23T20:36:39.158Z,97234.67
2022-12-23T20:39:07.818Z,97238.48
2022-12-23T20:41:36.055Z,97239.16
2022-12-23T20:46:52.677Z,97245.19
2022-12-23T20:49:21.079Z,97247.97
2022-12-23T20:51:49.448Z,97251.42
2022-12-23T20:54:17.939Z,97245.69
2022-12-23T20:56:46.552Z,97251.55
2022-12-23T20:59:14.857Z,97251.21
2022-12-23T21:01:43.409Z,97256.73
2022-12-23T21:04:18.373Z,97259.33
2022-12-23T21:06:46.531Z,97258.30
2022-12-23T21:09:15.615Z,97262.62
2022-12-23T21:11:45.920Z,97262.09
2022-12-23T21:14:15.478Z,97256.74
2022-12-23T21:16:44.070Z,97263.33
2022-12-23T21:19:21.698Z,97270.94
2022-12-23T21:21:51.369Z,97271.11
2022-12-23T21:24:20.977Z,97262.09
2022-12-23T21:26:56.574Z,97258.64
2022-12-23T21:29:25.948Z,97262.79
2022-12-23T21:31:55.523Z,97261.58
2022-12-23T21:34:24.180Z,97261.40
2022-12-23T21:36:52.555Z,97267.45
2022-12-23T21:39:20.968Z,97265.56
2022-12-23T21:41:51.709Z,97254.67
2022-12-23T21:44:20.015Z,97251.76
2022-12-23T21:46:50.941Z,97252.63
2022-12-23T21:49:21.408Z,97257.13
2022-12-23T21:51:49.583Z,97258.87
2022-12-23T21:54:17.683Z,97256.98
2022-12-23T21:56:45.763Z,97252.31
2022-12-23T21:59:15.033Z,97248.52
2022-12-23T22:01:43.761Z,97252.48
2022-12-23T22:04:11.935Z,97248.52
2022-12-23T22:06:46.266Z,97244.54
2022-12-23T22:09:19.000Z,97243.16
2022-12-23T22:11:48.627Z,97238.32
2022-12-23T22:14:19.802Z,97245.93
2022-12-23T22:16:48.061Z,97254.05
2022-12-23T22:19:16.418Z,97249.90
2022-12-23T22:21:44.934Z,97246.09
2022-12-23T22:24:13.196Z,97241.08
2022-12-23T22:26:41.923Z,97239.69
2022-12-23T22:29:10.793Z,97232.42
2022-12-23T22:31:47.471Z,97235.87
2022-12-23T22:34:19.192Z,97231.90
2022-12-23T22:36:48.205Z,97225.16
2022-12-23T22:39:21.086Z,97236.23
2022-12-23T22:41:51.483Z,97239.00
2022-12-23T22:44:20.983Z,97227.77
2022-12-23T22:46:49.165Z,97226.23
2022-12-23T22:49:17.578Z,97222.25
2022-12-23T22:51:45.715Z,97217.23
2022-12-23T22:54:14.343Z,97215.52
2022-12-23T22:56:42.718Z,97216.55
2022-12-23T22:59:19.480Z,97209.64
2022-12-23T23:01:48.993Z,97198.23
2022-12-23T23:04:17.567Z,97207.92
2022-12-23T23:06:45.619Z,97208.08
2022-12-23T23:09:18.320Z,97199.10
2022-12-23T23:11:46.455Z,97202.05
2022-12-23T23:14:14.960Z,97201.35
2022-12-23T23:16:43.127Z,97202.91
2022-12-23T23:19:12.093Z,97202.05
2022-12-23T23:21:40.108Z,97220.01
2022-12-23T23:24:08.650Z,97213.79
2022-12-23T23:26:36.521Z,97205.84
2022-12-23T23:29:04.960Z,97200.31
2022-12-23T23:31:42.286Z,97200.14
2022-12-23T23:34:12.066Z,97196.52
2022-12-23T23:36:40.775Z,97197.20
2022-12-23T23:39:11.335Z,97206.88
2022-12-23T23:41:41.066Z,97211.70
2022-12-23T23:44:09.375Z,97212.40
2022-12-23T23:46:38.650Z,97207.05
2022-12-23T23:49:06.742Z,97205.48
2022-12-23T23:51:35.071Z,97210.67
2022-12-23T23:54:03.703Z,97210.50
2022-12-23T23:56:37.834Z,97217.06
2022-12-23T23:59:09.083Z,97219.66
